Portada
METAR-TAF:

METAR-TAF

Aeropuertos :

Aeropuerto Internacional de Malé

Malé, Maldivas

latitud: 04-12N, longitud: 073-32E, altitud: 2 m

Observación

El informe se hizo hace 1 hora y 14 minutos, a las 13:00 UTC
Viento 10 kt del oeste-noroeste
Temperatura 31°C
Humedad 71%
Presión 1008 hPa
Visibilidad 10 km o más
Escasas nubes a una altura de 1800 ft, Cumulus congestus.
Cielo nuboso a una altura de 27000 ft

METAR: VRMM 241300Z 30010KT 9999 FEW018TCU BKN270 31/25 Q1008 NOSIG

Hora: 19:14 (14:14 UTC)

Pronóstico

El informe se hizo hace 3 horas y 14 minutos, a las 11:00 UTC
Pronóstico válido del 24 a las 12 UTC al 25 a las 18 UTC
Viento 6 kt del noroeste
Visibilidad 10 km o más
Escasas nubes a una altura de 1800 ft
Temporalmente
del 24 a las 15 UTC al 24 a las 21 UTC
Escasas nubes a una altura de 1900 ft, Cumulonimbus.

TAF: VRMM 241100Z 2412/2518 32006KT 9999 FEW018 TEMPO 2415/2421 FEW019CB

Observaciones y pronósticos meteorológicos de más de 4000 aeropuertos (mensajes METAR y TAF).

Los puntos amarillos y rojos representan las estaciones disponibles.

Ponga el ratón en el punto deseado para ver el nombre de la estación.

Haga clic para ver las observaciones y los pronósticos meteorológicos.

Para cambiar el mapa : haga clic en los botones verdes con una cruz de color negro para hacer un zoom, en el botón verde con un guión para alejar o en las flechas verdes para mapas adyacentes.


METAR-TAF: